createdAt,value
2024-03-29T00:00:51.924Z,96668.58
2024-03-29T00:03:41.542Z,96671.66
2024-03-29T00:06:10.496Z,96671.59
2024-03-29T00:08:40.302Z,96677.09
2024-03-29T00:11:08.423Z,96678.54
2024-03-29T00:13:37.152Z,96674.63
2024-03-29T00:16:05.842Z,96669.69
2024-03-29T00:18:34.626Z,96672.55
2024-03-29T00:21:03.372Z,96671.11
2024-03-29T00:23:32.621Z,96663.02
2024-03-29T00:26:00.722Z,96660.75
2024-03-29T00:28:31.384Z,96661.23
2024-03-29T00:30:59.595Z,96675.63
2024-03-29T00:33:27.949Z,96681.70
2024-03-29T00:35:55.904Z,96674.11
2024-03-29T00:38:24.184Z,96689.91
2024-03-29T00:40:52.396Z,96695.04
2024-03-29T00:43:21.866Z,96700.15
2024-03-29T00:45:50.153Z,96697.60
2024-03-29T00:48:22.109Z,96680.41
2024-03-29T00:50:51.529Z,96678.20
2024-03-29T00:53:20.763Z,96668.33
2024-03-29T00:55:48.863Z,96681.06
2024-03-29T00:58:17.046Z,96681.34
2024-03-29T01:00:46.493Z,96676.04
2024-03-29T01:03:15.848Z,96671.61
2024-03-29T01:05:44.063Z,96669.58
2024-03-29T01:08:12.775Z,96668.28
2024-03-29T01:10:40.952Z,96658.05
2024-03-29T01:13:09.969Z,96665.45
2024-03-29T01:15:40.661Z,96662.35
2024-03-29T01:18:13.178Z,96670.20
2024-03-29T01:20:41.562Z,96665.77
2024-03-29T01:23:10.032Z,96662.77
2024-03-29T01:25:38.111Z,96658.54
2024-03-29T01:28:06.631Z,96654.31
2024-03-29T01:30:36.258Z,96649.21
2024-03-29T01:33:04.410Z,96656.77
2024-03-29T01:35:33.150Z,96652.39
2024-03-29T01:38:01.213Z,96662.39
2024-03-29T01:40:29.416Z,96664.32
2024-03-29T01:42:57.555Z,96658.29
2024-03-29T01:45:25.794Z,96649.61
2024-03-29T01:47:54.469Z,96661.06
2024-03-29T01:50:23.103Z,96661.13
2024-03-29T01:52:52.328Z,96652.06
2024-03-29T01:55:20.535Z,96671.33
2024-03-29T01:57:49.807Z,96678.69
2024-03-29T02:00:20.055Z,96690.77
2024-03-29T02:02:49.011Z,96698.20
2024-03-29T02:05:18.624Z,96693.52
2024-03-29T02:07:51.846Z,96700.45
2024-03-29T02:10:20.744Z,96720.11
2024-03-29T02:12:50.487Z,96730.23
2024-03-29T02:15:21.033Z,96738.97
2024-03-29T02:17:53.376Z,96745.33
2024-03-29T02:20:33.839Z,96755.27
2024-03-29T02:23:18.691Z,96762.77
2024-03-29T02:25:46.792Z,96769.51
2024-03-29T02:28:15.879Z,96778.40
2024-03-29T02:30:44.247Z,96793.85
2024-03-29T02:33:12.195Z,96796.70
2024-03-29T02:35:40.340Z,96806.48
2024-03-29T02:38:08.398Z,96822.67
2024-03-29T02:40:38.251Z,96830.89
2024-03-29T02:43:06.629Z,96851.05
2024-03-29T02:45:35.911Z,96867.27
2024-03-29T02:48:05.495Z,96873.11
2024-03-29T02:50:33.777Z,96895.30
2024-03-29T02:53:01.910Z,96911.84
2024-03-29T02:55:30.108Z,96934.70
2024-03-29T02:58:00.947Z,96978.89
2024-03-29T03:00:28.958Z,97009.56
2024-03-29T03:02:57.084Z,97011.06
2024-03-29T03:05:25.174Z,97009.71
2024-03-29T03:08:11.674Z,96981.33
2024-03-29T03:11:01.754Z,96970.58
2024-03-29T03:13:30.279Z,96942.55
2024-03-29T03:15:58.603Z,96920.92
2024-03-29T03:18:29.874Z,96905.20
2024-03-29T03:21:01.619Z,96911.36
2024-03-29T03:23:32.351Z,96900.54
2024-03-29T03:26:06.286Z,96895.60
2024-03-29T03:28:36.659Z,96898.11
2024-03-29T03:31:06.335Z,96892.17
2024-03-29T03:33:35.498Z,96897.51
2024-03-29T03:36:03.757Z,96901.26
2024-03-29T03:38:33.938Z,96904.65
2024-03-29T03:41:03.331Z,96901.14
2024-03-29T03:43:32.173Z,96908.28
2024-03-29T03:46:03.227Z,96908.55
2024-03-29T03:48:33.974Z,96910.31
2024-03-29T03:51:02.263Z,96911.83
2024-03-29T03:53:31.401Z,96914.75
2024-03-29T03:55:59.389Z,96916.81
2024-03-29T03:58:27.605Z,96917.10
2024-03-29T04:00:55.718Z,96921.52
2024-03-29T04:03:23.874Z,96921.00
2024-03-29T04:05:52.204Z,96915.37
2024-03-29T04:08:21.219Z,96918.28
2024-03-29T04:10:49.386Z,96928.43
2024-03-29T04:13:20.210Z,96938.16
2024-03-29T04:15:49.417Z,96933.32
2024-03-29T04:18:17.998Z,96933.55
2024-03-29T04:20:48.310Z,96947.73
2024-03-29T04:23:16.455Z,96943.72
2024-03-29T04:25:55.636Z,96947.20
2024-03-29T04:28:25.751Z,96959.56
2024-03-29T04:31:00.499Z,96975.19
2024-03-29T04:33:28.966Z,96988.73
2024-03-29T04:36:01.230Z,97004.67
2024-03-29T04:38:29.680Z,97023.63
2024-03-29T04:40:59.514Z,97044.96
2024-03-29T04:43:31.138Z,97045.84
2024-03-29T04:46:11.459Z,97051.66
2024-03-29T04:48:44.400Z,97065.34
2024-03-29T04:51:13.258Z,97084.70
2024-03-29T04:53:42.607Z,97097.06
2024-03-29T04:56:11.534Z,97112.91
2024-03-29T04:58:41.909Z,97123.54
2024-03-29T05:01:10.362Z,97141.45
2024-03-29T05:03:39.194Z,97153.33
2024-03-29T05:06:10.530Z,97157.13
2024-03-29T05:08:38.613Z,97168.97
2024-03-29T05:11:11.205Z,97179.30
2024-03-29T05:13:39.812Z,97183.16
2024-03-29T05:16:10.751Z,97208.48
2024-03-29T05:18:43.054Z,97202.27
2024-03-29T05:21:11.708Z,97201.36
2024-03-29T05:23:41.501Z,97198.39
2024-03-29T05:26:10.072Z,97198.27
2024-03-29T05:28:39.574Z,97194.11
2024-03-29T05:31:15.555Z,97198.19
2024-03-29T05:33:43.996Z,97221.41
2024-03-29T05:36:14.580Z,97218.19
2024-03-29T05:38:43.065Z,97208.91
2024-03-29T05:41:11.726Z,97203.92
2024-03-29T05:43:42.406Z,97213.04
2024-03-29T05:46:10.804Z,97205.45
2024-03-29T05:48:40.393Z,97192.56
2024-03-29T05:51:08.900Z,97176.73
2024-03-29T05:53:40.037Z,97171.80
2024-03-29T05:56:09.370Z,97184.11
2024-03-29T05:58:37.970Z,97202.72
2024-03-29T06:01:05.975Z,97209.30
2024-03-29T06:03:34.216Z,97220.27
2024-03-29T06:06:03.839Z,97234.55
2024-03-29T06:08:35.711Z,97255.86
2024-03-29T06:11:07.198Z,97259.43
2024-03-29T06:13:54.787Z,97265.52
2024-03-29T06:16:44.602Z,97283.19
2024-03-29T06:19:15.558Z,97309.67
2024-03-29T06:21:43.712Z,97316.83
2024-03-29T06:24:20.080Z,97324.48
2024-03-29T06:26:48.082Z,97340.23
2024-03-29T06:29:16.670Z,97337.72
2024-03-29T06:31:45.600Z,97345.70
2024-03-29T06:34:16.577Z,97353.25
2024-03-29T06:36:44.593Z,97369.66
2024-03-29T06:39:16.763Z,97393.39
2024-03-29T06:41:44.867Z,97405.45
2024-03-29T06:44:13.202Z,97414.89
2024-03-29T06:46:43.407Z,97426.05
2024-03-29T06:49:11.403Z,97442.41
2024-03-29T06:51:45.615Z,97444.08
2024-03-29T06:54:15.233Z,97438.27
2024-03-29T06:56:43.712Z,97442.77
2024-03-29T06:59:12.993Z,97441.61
2024-03-29T07:01:41.554Z,97434.58
2024-03-29T07:04:10.715Z,97426.94
2024-03-29T07:06:44.080Z,97425.68
2024-03-29T07:09:13.621Z,97435.55
2024-03-29T07:11:45.242Z,97435.58
2024-03-29T07:14:14.642Z,97426.15
2024-03-29T07:16:43.711Z,97423.42
2024-03-29T07:19:13.952Z,97426.65
2024-03-29T07:21:42.617Z,97415.32
2024-03-29T07:24:11.636Z,97412.77
2024-03-29T07:26:46.046Z,97415.77
2024-03-29T07:29:16.121Z,97415.52
2024-03-29T07:31:46.492Z,97428.31
2024-03-29T07:34:14.588Z,97435.42
2024-03-29T07:36:42.734Z,97437.98
2024-03-29T07:39:11.199Z,97439.27
2024-03-29T07:41:39.411Z,97463.87
2024-03-29T07:44:10.967Z,97465.82
2024-03-29T07:46:41.111Z,97468.33
2024-03-29T07:49:12.656Z,97473.44
2024-03-29T07:51:42.762Z,97482.25
2024-03-29T07:54:11.625Z,97490.48
2024-03-29T07:56:40.089Z,97495.23
2024-03-29T07:59:08.572Z,97498.52
2024-03-29T08:01:41.893Z,97502.89
2024-03-29T08:04:12.729Z,97505.84
2024-03-29T08:06:41.242Z,97516.26
2024-03-29T08:09:10.878Z,97521.73
2024-03-29T08:11:40.247Z,97532.99
2024-03-29T08:14:12.392Z,97535.41
2024-03-29T08:16:41.702Z,97534.61
2024-03-29T08:19:10.575Z,97535.92
2024-03-29T08:21:38.974Z,97532.91
2024-03-29T08:24:07.284Z,97528.89
2024-03-29T08:26:35.628Z,97529.73
2024-03-29T08:29:04.364Z,97523.95
2024-03-29T08:31:32.934Z,97519.96
2024-03-29T08:34:03.198Z,97513.54
2024-03-29T08:36:33.999Z,97516.77
2024-03-29T08:39:05.803Z,97514.89
2024-03-29T08:41:34.789Z,97513.71
2024-03-29T08:44:04.083Z,97505.59
2024-03-29T08:46:32.478Z,97510.41
2024-03-29T08:49:04.125Z,97512.79
2024-03-29T08:51:32.446Z,97507.67
2024-03-29T08:54:01.827Z,97508.22
2024-03-29T08:56:30.489Z,97518.27
2024-03-29T08:59:02.000Z,97518.64
2024-03-29T09:01:43.856Z,97519.63
2024-03-29T09:04:12.493Z,97522.20
2024-03-29T09:06:44.019Z,97519.83
2024-03-29T09:09:14.284Z,97513.41
2024-03-29T09:11:43.405Z,97514.63
2024-03-29T09:14:13.629Z,97521.10
2024-03-29T09:16:42.553Z,97519.57
2024-03-29T09:19:11.329Z,97512.80
2024-03-29T09:21:39.710Z,97515.63
2024-03-29T09:24:09.244Z,97515.05
2024-03-29T09:26:40.634Z,97512.16
2024-03-29T09:29:12.438Z,97508.63
2024-03-29T09:31:52.886Z,97505.45
2024-03-29T09:34:24.372Z,97501.20
2024-03-29T09:36:52.765Z,97499.48
2024-03-29T09:39:21.070Z,97500.39
2024-03-29T09:42:02.444Z,97501.44
2024-03-29T09:44:37.453Z,97505.15
2024-03-29T09:47:07.981Z,97499.77
2024-03-29T09:49:38.670Z,97498.09
2024-03-29T09:52:08.104Z,97495.43
2024-03-29T09:54:51.587Z,97491.66
2024-03-29T09:57:21.784Z,97484.70
2024-03-29T09:59:50.469Z,97492.51
2024-03-29T10:02:22.078Z,97503.48
2024-03-29T10:05:06.251Z,97504.02
2024-03-29T10:07:37.483Z,97497.25
2024-03-29T10:10:06.403Z,97496.55
2024-03-29T10:12:35.767Z,97496.83
2024-03-29T10:15:29.429Z,97496.17
2024-03-29T10:17:57.945Z,97494.77
2024-03-29T10:20:28.121Z,97485.14
2024-03-29T10:22:59.188Z,97485.73
2024-03-29T10:25:27.614Z,97488.64
2024-03-29T10:27:55.848Z,97490.58
2024-03-29T10:30:26.813Z,97494.08
2024-03-29T10:32:59.967Z,97494.98
2024-03-29T10:35:32.616Z,97497.66
2024-03-29T10:38:05.984Z,97499.20
2024-03-29T10:40:34.325Z,97497.48
2024-03-29T10:43:05.768Z,97489.58
2024-03-29T10:45:35.093Z,97489.96
2024-03-29T10:48:09.534Z,97492.52
2024-03-29T10:50:42.300Z,97501.05
2024-03-29T10:53:14.835Z,97505.40
2024-03-29T10:55:44.124Z,97500.30
2024-03-29T10:58:15.783Z,97498.70
2024-03-29T11:00:49.133Z,97495.17
2024-03-29T11:03:42.783Z,97495.31
2024-03-29T11:06:32.246Z,97488.80
2024-03-29T11:09:03.619Z,97486.39
2024-03-29T11:11:37.718Z,97477.89
2024-03-29T11:14:11.536Z,97467.48
2024-03-29T11:16:47.373Z,97457.50
2024-03-29T11:19:22.098Z,97457.39
2024-03-29T11:21:50.581Z,97458.65
2024-03-29T11:24:20.567Z,97463.42
2024-03-29T11:27:20.038Z,97464.61
2024-03-29T11:30:12.412Z,97461.92
2024-03-29T11:32:43.917Z,97467.19
2024-03-29T11:35:17.447Z,97463.14
2024-03-29T11:37:57.538Z,97465.74
2024-03-29T11:40:31.357Z,97459.98
2024-03-29T11:42:59.898Z,97459.66
2024-03-29T11:45:34.120Z,97465.19
2024-03-29T11:48:05.652Z,97465.26
2024-03-29T11:50:34.540Z,97458.15
2024-03-29T11:53:04.691Z,97449.09
2024-03-29T11:55:37.154Z,97443.98
2024-03-29T11:58:21.109Z,97434.31
2024-03-29T12:00:52.310Z,97427.03
2024-03-29T12:03:25.787Z,97431.49
2024-03-29T12:06:03.465Z,97428.95
2024-03-29T12:08:33.539Z,97423.16
2024-03-29T12:11:02.717Z,97422.29
2024-03-29T12:13:34.289Z,97427.43
2024-03-29T12:16:02.934Z,97425.09
2024-03-29T12:18:34.426Z,97424.56
2024-03-29T12:21:02.789Z,97419.30
2024-03-29T12:23:33.229Z,97415.30
2024-03-29T12:26:03.171Z,97415.25
2024-03-29T12:28:38.151Z,97415.46
2024-03-29T12:31:10.673Z,97424.88
2024-03-29T12:33:39.755Z,97419.30
2024-03-29T12:36:08.755Z,97414.15
2024-03-29T12:38:38.604Z,97409.65
2024-03-29T12:41:09.373Z,97401.86
2024-03-29T12:43:41.353Z,97399.85
2024-03-29T12:46:09.689Z,97394.68
2024-03-29T12:48:41.673Z,97389.79
2024-03-29T12:51:10.296Z,97389.86
2024-03-29T12:53:40.542Z,97399.75
2024-03-29T12:56:09.427Z,97420.17
2024-03-29T12:58:40.769Z,97405.13
2024-03-29T13:01:11.575Z,97402.14
2024-03-29T13:03:42.311Z,97408.45
2024-03-29T13:06:13.943Z,97410.43
2024-03-29T13:08:42.279Z,97406.33
2024-03-29T13:11:12.696Z,97404.70
2024-03-29T13:13:43.647Z,97394.79
2024-03-29T13:16:12.854Z,97391.55
2024-03-29T13:18:43.249Z,97391.56
2024-03-29T13:21:12.219Z,97392.15
2024-03-29T13:23:40.877Z,97390.80
2024-03-29T13:26:12.921Z,97389.08
2024-03-29T13:28:42.677Z,97388.65
2024-03-29T13:31:10.930Z,97381.04
2024-03-29T13:33:41.283Z,97383.08
2024-03-29T13:36:11.115Z,97376.76
2024-03-29T13:38:51.873Z,97384.48
2024-03-29T13:41:27.185Z,97387.55
2024-03-29T13:43:56.831Z,97388.06
2024-03-29T13:46:29.065Z,97379.20
2024-03-29T13:48:59.618Z,97380.80
2024-03-29T13:51:28.789Z,97385.25
2024-03-29T13:53:59.856Z,97386.14
2024-03-29T13:56:30.977Z,97380.38
2024-03-29T13:59:01.285Z,97384.29
2024-03-29T14:01:29.719Z,97389.95
2024-03-29T14:03:57.974Z,97387.73
2024-03-29T14:06:27.988Z,97385.30
2024-03-29T14:08:56.817Z,97383.52
2024-03-29T14:11:31.177Z,97385.00
2024-03-29T14:14:03.837Z,97386.23
2024-03-29T14:16:33.704Z,97387.76
2024-03-29T14:19:05.536Z,97384.74
2024-03-29T14:21:35.397Z,97389.89
2024-03-29T14:24:03.947Z,97385.86
2024-03-29T14:26:32.922Z,97379.94
2024-03-29T14:29:02.125Z,97373.77
2024-03-29T14:31:33.275Z,97375.68
2024-03-29T14:34:02.271Z,97371.70
2024-03-29T14:36:34.643Z,97376.64
2024-03-29T14:39:02.937Z,97372.20
2024-03-29T14:41:32.708Z,97370.88
2024-03-29T14:44:00.908Z,97375.30
2024-03-29T14:46:30.387Z,97374.42
2024-03-29T14:48:58.500Z,97371.70
2024-03-29T14:51:29.914Z,97373.74
2024-03-29T14:53:59.863Z,97379.17
2024-03-29T14:56:32.138Z,97374.27
2024-03-29T14:59:10.757Z,97371.34
2024-03-29T15:01:39.773Z,97376.41
2024-03-29T15:04:15.406Z,97374.80
2024-03-29T15:06:45.337Z,97376.56
2024-03-29T15:09:14.875Z,97370.64
2024-03-29T15:11:43.326Z,97372.13
2024-03-29T15:14:11.874Z,97369.05
2024-03-29T15:16:41.281Z,97368.90
2024-03-29T15:19:09.590Z,97368.83
2024-03-29T15:21:40.376Z,97372.14
2024-03-29T15:24:09.729Z,97373.27
2024-03-29T15:26:38.097Z,97374.09
2024-03-29T15:29:09.219Z,97369.38
2024-03-29T15:31:46.037Z,97364.64
2024-03-29T15:34:14.570Z,97365.31
2024-03-29T15:36:45.178Z,97367.80
2024-03-29T15:39:16.606Z,97363.79
2024-03-29T15:41:46.166Z,97366.52
2024-03-29T15:44:16.691Z,97367.05
2024-03-29T15:46:47.759Z,97368.52
2024-03-29T15:49:21.038Z,97367.51
2024-03-29T15:51:50.089Z,97366.21
2024-03-29T15:54:21.197Z,97364.70
2024-03-29T15:56:50.267Z,97366.86
2024-03-29T15:59:20.247Z,97366.33
2024-03-29T16:01:49.999Z,97369.62
2024-03-29T16:04:19.687Z,97368.89
2024-03-29T16:06:51.937Z,97376.94
2024-03-29T16:09:21.068Z,97374.23
2024-03-29T16:11:49.750Z,97378.01
2024-03-29T16:14:18.171Z,97383.14
2024-03-29T16:16:46.678Z,97385.13
2024-03-29T16:19:16.331Z,97387.48
2024-03-29T16:21:45.669Z,97390.99
2024-03-29T16:24:14.831Z,97388.61
2024-03-29T16:26:43.407Z,97392.36
2024-03-29T16:29:15.173Z,97395.50
2024-03-29T16:31:43.950Z,97398.17
2024-03-29T16:34:16.983Z,97398.95
2024-03-29T16:36:46.754Z,97401.41
2024-03-29T16:39:15.213Z,97403.73
2024-03-29T16:41:47.416Z,97409.73
2024-03-29T16:44:19.526Z,97418.39
2024-03-29T16:46:51.849Z,97420.09
2024-03-29T16:49:25.906Z,97417.42
2024-03-29T16:51:55.429Z,97425.52
2024-03-29T16:54:25.372Z,97430.30
2024-03-29T16:56:53.607Z,97426.71
2024-03-29T16:59:22.082Z,97430.05
2024-03-29T17:01:51.388Z,97428.30
2024-03-29T17:04:19.481Z,97428.21
2024-03-29T17:06:50.483Z,97427.42
2024-03-29T17:09:39.593Z,97423.04
2024-03-29T17:12:08.875Z,97427.50
2024-03-29T17:14:37.307Z,97429.93
2024-03-29T17:17:06.223Z,97428.90
2024-03-29T17:19:37.178Z,97426.09
2024-03-29T17:22:06.816Z,97422.32
2024-03-29T17:24:36.307Z,97420.36
2024-03-29T17:27:07.397Z,97425.36
2024-03-29T17:29:38.877Z,97432.73
2024-03-29T17:32:11.950Z,97436.09
2024-03-29T17:34:41.806Z,97440.75
2024-03-29T17:37:11.538Z,97448.14
2024-03-29T17:39:41.225Z,97450.14
2024-03-29T17:42:12.357Z,97449.23
2024-03-29T17:44:40.798Z,97451.07
2024-03-29T17:47:10.390Z,97456.45
2024-03-29T17:49:38.996Z,97464.99
2024-03-29T17:52:09.819Z,97470.59
2024-03-29T17:54:39.474Z,97472.22
2024-03-29T17:57:09.676Z,97476.16
2024-03-29T17:59:39.235Z,97480.66
2024-03-29T18:02:10.684Z,97482.98
2024-03-29T18:04:39.341Z,97481.88
2024-03-29T18:07:08.668Z,97484.27
2024-03-29T18:09:38.431Z,97488.07
2024-03-29T18:12:09.058Z,97492.67
2024-03-29T18:14:37.694Z,97503.69
2024-03-29T18:17:06.731Z,97507.02
2024-03-29T18:19:35.305Z,97506.48
2024-03-29T18:22:03.831Z,97506.23
2024-03-29T18:24:32.117Z,97509.59
2024-03-29T18:27:00.496Z,97506.02
2024-03-29T18:29:28.656Z,97501.45
2024-03-29T18:31:59.413Z,97499.55
2024-03-29T18:34:27.545Z,97494.66
2024-03-29T18:36:55.852Z,97499.21
2024-03-29T18:39:25.073Z,97501.85
2024-03-29T18:41:57.098Z,97504.31
2024-03-29T18:44:26.094Z,97510.03
2024-03-29T18:46:57.281Z,97503.45
2024-03-29T18:49:33.073Z,97500.30
2024-03-29T18:52:01.995Z,97505.66
2024-03-29T18:54:33.525Z,97511.87
2024-03-29T18:57:01.773Z,97509.65
2024-03-29T18:59:31.198Z,97512.89
2024-03-29T19:02:00.926Z,97516.65
2024-03-29T19:04:29.180Z,97515.34
2024-03-29T19:06:57.379Z,97515.66
2024-03-29T19:09:27.898Z,97515.56
2024-03-29T19:11:56.940Z,97519.27
2024-03-29T19:14:28.276Z,97516.52
2024-03-29T19:16:58.770Z,97514.09
2024-03-29T19:19:29.855Z,97513.91
2024-03-29T19:22:00.633Z,97509.56
2024-03-29T19:24:30.274Z,97506.36
2024-03-29T19:26:59.416Z,97503.11
2024-03-29T19:29:31.553Z,97505.96
2024-03-29T19:32:03.200Z,97507.89
2024-03-29T19:34:33.213Z,97506.44
2024-03-29T19:37:06.094Z,97508.95
2024-03-29T19:39:34.236Z,97512.02
2024-03-29T19:42:02.708Z,97512.34
2024-03-29T19:44:31.354Z,97513.77
2024-03-29T19:46:59.698Z,97510.44
2024-03-29T19:49:28.756Z,97508.94
2024-03-29T19:51:58.424Z,97509.27
2024-03-29T19:54:29.452Z,97510.78
2024-03-29T19:56:57.991Z,97514.34
2024-03-29T19:59:27.521Z,97513.17
2024-03-29T20:01:55.702Z,97511.67
2024-03-29T20:04:26.243Z,97511.89
2024-03-29T20:06:54.737Z,97510.77
2024-03-29T20:09:22.957Z,97508.12
2024-03-29T20:11:52.494Z,97509.77
2024-03-29T20:14:23.132Z,97514.86
2024-03-29T20:16:51.898Z,97512.31
2024-03-29T20:19:20.810Z,97512.77
2024-03-29T20:21:49.158Z,97517.38
2024-03-29T20:24:18.092Z,97525.34
2024-03-29T20:26:47.732Z,97529.02
2024-03-29T20:29:16.359Z,97530.52
2024-03-29T20:31:47.995Z,97528.04
2024-03-29T20:34:19.633Z,97528.98
2024-03-29T20:36:50.107Z,97522.67
2024-03-29T20:39:19.880Z,97518.98
2024-03-29T20:41:48.164Z,97519.55
2024-03-29T20:44:16.539Z,97525.25
2024-03-29T20:46:52.498Z,97523.81
2024-03-29T20:49:21.554Z,97528.49
2024-03-29T20:51:51.618Z,97528.52
2024-03-29T20:54:20.591Z,97527.45
2024-03-29T20:56:48.868Z,97529.16
2024-03-29T20:59:17.115Z,97533.13
2024-03-29T21:02:04.232Z,97538.69
2024-03-29T21:04:51.182Z,97540.98
2024-03-29T21:07:21.201Z,97535.71
2024-03-29T21:09:50.810Z,97533.98
2024-03-29T21:12:23.141Z,97532.94
2024-03-29T21:14:52.248Z,97525.41
2024-03-29T21:17:22.054Z,97519.31
2024-03-29T21:19:50.245Z,97521.68
2024-03-29T21:22:20.447Z,97530.33
2024-03-29T21:24:48.758Z,97526.30
2024-03-29T21:27:16.969Z,97519.13
2024-03-29T21:29:45.948Z,97518.16
2024-03-29T21:32:14.395Z,97517.19
2024-03-29T21:34:43.799Z,97515.69
2024-03-29T21:37:13.250Z,97518.95
2024-03-29T21:39:44.020Z,97526.41
2024-03-29T21:42:18.879Z,97527.48
2024-03-29T21:44:52.985Z,97530.45
2024-03-29T21:47:22.566Z,97531.89
2024-03-29T21:49:52.295Z,97533.89
2024-03-29T21:52:21.972Z,97533.20
2024-03-29T21:54:51.429Z,97531.70
2024-03-29T21:57:19.831Z,97534.89
2024-03-29T21:59:48.885Z,97540.84
2024-03-29T22:02:16.956Z,97540.75
2024-03-29T22:04:46.180Z,97541.02
2024-03-29T22:07:15.454Z,97536.73
2024-03-29T22:09:43.835Z,97532.27
2024-03-29T22:12:12.217Z,97534.06
2024-03-29T22:14:41.682Z,97532.71
2024-03-29T22:17:11.682Z,97534.02
2024-03-29T22:19:39.868Z,97535.16
2024-03-29T22:22:08.171Z,97537.58
2024-03-29T22:24:38.240Z,97537.77
2024-03-29T22:27:06.675Z,97539.08
2024-03-29T22:29:35.484Z,97540.10
2024-03-29T22:32:05.073Z,97542.98
2024-03-29T22:34:33.243Z,97538.80
2024-03-29T22:37:03.701Z,97533.96
2024-03-29T22:39:31.860Z,97532.85
2024-03-29T22:42:00.037Z,97528.10
2024-03-29T22:44:28.677Z,97533.63
2024-03-29T22:46:59.287Z,97544.94
2024-03-29T22:49:27.430Z,97539.36
2024-03-29T22:51:59.159Z,97539.56
2024-03-29T22:54:27.575Z,97555.84
2024-03-29T22:56:55.832Z,97536.52
2024-03-29T22:59:23.999Z,97539.57
2024-03-29T23:01:52.282Z,97551.15
2024-03-29T23:04:20.963Z,97551.94
2024-03-29T23:06:50.791Z,97553.92
2024-03-29T23:09:19.295Z,97556.52
2024-03-29T23:11:50.041Z,97555.45
2024-03-29T23:14:21.895Z,97558.67
2024-03-29T23:16:50.063Z,97550.70
2024-03-29T23:19:18.304Z,97554.64
2024-03-29T23:21:47.340Z,97559.08
2024-03-29T23:24:15.718Z,97551.31
2024-03-29T23:26:43.915Z,97549.02
2024-03-29T23:29:12.159Z,97551.56
2024-03-29T23:31:40.201Z,97548.89
2024-03-29T23:34:09.532Z,97550.94
2024-03-29T23:36:38.829Z,97551.30
2024-03-29T23:39:07.131Z,97550.23
2024-03-29T23:41:36.412Z,97541.62
2024-03-29T23:44:05.256Z,97533.80
2024-03-29T23:46:33.790Z,97534.04
2024-03-29T23:49:04.447Z,97535.66
2024-03-29T23:51:33.527Z,97539.08
2024-03-29T23:54:01.689Z,97541.77
2024-03-29T23:56:29.779Z,97542.61
2024-03-29T23:58:59.558Z,97544.88
